JBU2145 KLGA-KTPA
Flight info
| Callsign | JBU2145 |
|---|---|
| Flight time | 2h 23m |
| Altitude | 34000 |
| Route | BIGGY Q75 TEUFL BAAMF DADES2 |
| Aircraft | A321/M-SDE3FGHIRWY/LB1 |
Departure
| Time | 2026-05-04 23:26 |
|---|---|
| Airport | LaGuardia Airport (KLGA) |
Arrival
| Time | 2026-05-05 01:50 |
|---|---|
| Airport | Tampa International Airport (KTPA) |
| Time | Latitude | Longitude | Altitude | Speed | Heading |
|---|---|---|---|---|---|
| 2026-05-04 23:10 | 40.77615 | -73.87091 | 17 ft | 0 kts | 301° |
| 2026-05-04 23:18 | 40.77606 | -73.87070 | 17 ft | 3 kts | 301° |
| 2026-05-04 23:19 | 40.77596 | -73.87049 | 17 ft | 3 kts | 306° |
| 2026-05-04 23:19 | 40.77581 | -73.87035 | 19 ft | 3 kts | 8° |
| 2026-05-04 23:19 | 40.77566 | -73.87044 | 19 ft | 1 kts | 63° |
| 2026-05-04 23:22 | 40.77566 | -73.87043 | 19 ft | 1 kts | 64° |
| 2026-05-04 23:22 | 40.77583 | -73.87014 | 19 ft | 5 kts | 41° |
| 2026-05-04 23:22 | 40.77623 | -73.86996 | 17 ft | 9 kts | 6° |
| 2026-05-04 23:23 | 40.77694 | -73.86994 | 17 ft | 11 kts | 344° |
| 2026-05-04 23:23 | 40.77742 | -73.87065 | 19 ft | 11 kts | 303° |
| 2026-05-04 23:23 | 40.77782 | -73.87147 | 18 ft | 11 kts | 303° |
| 2026-05-04 23:23 | 40.77824 | -73.87233 | 18 ft | 11 kts | 301° |
| 2026-05-04 23:24 | 40.77866 | -73.87322 | 18 ft | 11 kts | 302° |
| 2026-05-04 23:24 | 40.77909 | -73.87412 | 19 ft | 12 kts | 302° |
| 2026-05-04 23:24 | 40.77956 | -73.87510 | 18 ft | 13 kts | 302° |
| 2026-05-04 23:24 | 40.78005 | -73.87616 | 18 ft | 15 kts | 302° |
| 2026-05-04 23:25 | 40.78065 | -73.87742 | 17 ft | 17 kts | 302° |
| 2026-05-04 23:25 | 40.78141 | -73.87856 | 21 ft | 17 kts | 339° |
| 2026-05-04 23:25 | 40.78207 | -73.87807 | 13 ft | 12 kts | 107° |
| 2026-05-04 23:25 | 40.78161 | -73.87710 | 13 ft | 18 kts | 122° |
| 2026-05-04 23:26 | 40.77965 | -73.87298 | 18 ft | 89 kts | 122° |
| 2026-05-04 23:26 | 40.77521 | -73.86368 | 20 ft | 148 kts | 122° |
| 2026-05-04 23:26 | 40.76920 | -73.85131 | 490 ft | 163 kts | 127° |
| 2026-05-04 23:26 | 40.76127 | -73.84110 | 1220 ft | 161 kts | 160° |
| 2026-05-04 23:27 | 40.75026 | -73.83721 | 1733 ft | 169 kts | 173° |
| 2026-05-04 23:27 | 40.73808 | -73.83396 | 1910 ft | 190 kts | 172° |
| 2026-05-04 23:27 | 40.72458 | -73.83050 | 2178 ft | 202 kts | 177° |
| 2026-05-04 23:27 | 40.71098 | -73.83280 | 2592 ft | 199 kts | 207° |
| 2026-05-04 23:28 | 40.70031 | -73.84428 | 2943 ft | 202 kts | 231° |
| 2026-05-04 23:28 | 40.69099 | -73.85883 | 3275 ft | 214 kts | 231° |
| 2026-05-04 23:28 | 40.68120 | -73.87404 | 3758 ft | 221 kts | 232° |
| 2026-05-04 23:28 | 40.67483 | -73.89224 | 4291 ft | 224 kts | 264° |
| 2026-05-04 23:29 | 40.67719 | -73.91293 | 4707 ft | 241 kts | 292° |
| 2026-05-04 23:29 | 40.68590 | -73.93264 | 5149 ft | 253 kts | 298° |
| 2026-05-04 23:29 | 40.69202 | -73.94580 | 5570 ft | 255 kts | 298° |
| 2026-05-04 23:29 | 40.70144 | -73.96578 | 6222 ft | 259 kts | 303° |
| 2026-05-04 23:30 | 40.71452 | -73.98243 | 6854 ft | 266 kts | 320° |
| 2026-05-04 23:30 | 40.72949 | -73.99664 | 7566 ft | 265 kts | 320° |
| 2026-05-04 23:30 | 40.74443 | -74.01102 | 8237 ft | 267 kts | 320° |
| 2026-05-04 23:30 | 40.75949 | -74.02586 | 8800 ft | 272 kts | 319° |
| 2026-05-04 23:31 | 40.77447 | -74.04110 | 9482 ft | 272 kts | 319° |
| 2026-05-04 23:31 | 40.78941 | -74.05646 | 10074 ft | 274 kts | 318° |
| 2026-05-04 23:31 | 40.80455 | -74.07204 | 10643 ft | 277 kts | 319° |
| 2026-05-04 23:31 | 40.81985 | -74.08775 | 11218 ft | 282 kts | 318° |
| 2026-05-04 23:32 | 40.83583 | -74.10426 | 11347 ft | 301 kts | 318° |
| 2026-05-04 23:32 | 40.85281 | -74.12180 | 11542 ft | 317 kts | 318° |
| 2026-05-04 23:32 | 40.86893 | -74.14242 | 11736 ft | 328 kts | 306° |
| 2026-05-04 23:32 | 40.87965 | -74.16894 | 11929 ft | 339 kts | 285° |
| 2026-05-04 23:33 | 40.88210 | -74.20026 | 12048 ft | 350 kts | 265° |
| 2026-05-04 23:33 | 40.87748 | -74.23201 | 12045 ft | 353 kts | 258° |
| 2026-05-04 23:33 | 40.87163 | -74.26360 | 11995 ft | 354 kts | 257° |
| 2026-05-04 23:33 | 40.86540 | -74.29510 | 11967 ft | 355 kts | 256° |
| 2026-05-04 23:34 | 40.85934 | -74.32660 | 12012 ft | 354 kts | 257° |
| 2026-05-04 23:34 | 40.85342 | -74.35825 | 12016 ft | 355 kts | 257° |
| 2026-05-04 23:34 | 40.84752 | -74.38982 | 12028 ft | 354 kts | 258° |
| 2026-05-04 23:34 | 40.84164 | -74.42136 | 12024 ft | 353 kts | 257° |
| 2026-05-04 23:35 | 40.83567 | -74.45279 | 12054 ft | 354 kts | 257° |
| 2026-05-04 23:35 | 40.82973 | -74.48432 | 12055 ft | 354 kts | 257° |
| 2026-05-04 23:35 | 40.82383 | -74.51583 | 12006 ft | 353 kts | 257° |
| 2026-05-04 23:35 | 40.81496 | -74.54606 | 12186 ft | 360 kts | 240° |
| 2026-05-04 23:36 | 40.79850 | -74.57142 | 12759 ft | 369 kts | 224° |
| 2026-05-04 23:36 | 40.77868 | -74.59312 | 13330 ft | 372 kts | 223° |
| 2026-05-04 23:36 | 40.75854 | -74.61469 | 13883 ft | 374 kts | 223° |
| 2026-05-04 23:36 | 40.73813 | -74.63627 | 14370 ft | 377 kts | 223° |
| 2026-05-04 23:37 | 40.71758 | -74.65797 | 14862 ft | 380 kts | 223° |
| 2026-05-04 23:37 | 40.69683 | -74.67988 | 15372 ft | 383 kts | 223° |
| 2026-05-04 23:37 | 40.67625 | -74.70160 | 15868 ft | 386 kts | 223° |
| 2026-05-04 23:37 | 40.65497 | -74.72411 | 16397 ft | 389 kts | 223° |
| 2026-05-04 23:38 | 40.63404 | -74.74629 | 16845 ft | 392 kts | 223° |
| 2026-05-04 23:38 | 40.61255 | -74.76909 | 16975 ft | 393 kts | 223° |
| 2026-05-04 23:38 | 40.59157 | -74.79134 | 17000 ft | 393 kts | 223° |
| 2026-05-04 23:38 | 40.57027 | -74.81389 | 17001 ft | 393 kts | 223° |
| 2026-05-04 23:39 | 40.54897 | -74.83636 | 16983 ft | 392 kts | 223° |
| 2026-05-04 23:39 | 40.52765 | -74.85883 | 17012 ft | 392 kts | 223° |
| 2026-05-04 23:39 | 40.50639 | -74.88121 | 17004 ft | 392 kts | 223° |
| 2026-05-04 23:39 | 40.48512 | -74.90366 | 17062 ft | 394 kts | 223° |
| 2026-05-04 23:40 | 40.46370 | -74.92627 | 17562 ft | 395 kts | 223° |
| 2026-05-04 23:40 | 40.44219 | -74.94892 | 18045 ft | 398 kts | 223° |
| 2026-05-04 23:40 | 40.42075 | -74.97206 | 18457 ft | 399 kts | 226° |
| 2026-05-04 23:40 | 40.40140 | -74.99816 | 18836 ft | 400 kts | 231° |
| 2026-05-04 23:41 | 40.38241 | -75.02492 | 19230 ft | 402 kts | 231° |
| 2026-05-04 23:41 | 40.36327 | -75.05192 | 19585 ft | 405 kts | 231° |
| 2026-05-04 23:41 | 40.34426 | -75.07872 | 19955 ft | 408 kts | 231° |
| 2026-05-04 23:41 | 40.32486 | -75.10601 | 20337 ft | 411 kts | 231° |
| 2026-05-04 23:42 | 40.30529 | -75.13341 | 20703 ft | 413 kts | 231° |
| 2026-05-04 23:42 | 40.28554 | -75.16099 | 21052 ft | 416 kts | 231° |
| 2026-05-04 23:42 | 40.26569 | -75.18870 | 21413 ft | 419 kts | 231° |
| 2026-05-04 23:42 | 40.24572 | -75.21660 | 21748 ft | 421 kts | 231° |
| 2026-05-04 23:43 | 40.22562 | -75.24467 | 22121 ft | 424 kts | 231° |
| 2026-05-04 23:43 | 40.20541 | -75.27286 | 22469 ft | 426 kts | 231° |
| 2026-05-04 23:43 | 40.18505 | -75.30120 | 22803 ft | 429 kts | 231° |
| 2026-05-04 23:43 | 40.16455 | -75.32966 | 23137 ft | 431 kts | 231° |
| 2026-05-04 23:44 | 40.14392 | -75.35832 | 23453 ft | 434 kts | 231° |
| 2026-05-04 23:44 | 40.12318 | -75.38716 | 23752 ft | 436 kts | 231° |
| 2026-05-04 23:44 | 40.10231 | -75.41614 | 24040 ft | 438 kts | 231° |
| 2026-05-04 23:44 | 40.08134 | -75.44521 | 24313 ft | 441 kts | 231° |
| 2026-05-04 23:45 | 40.06030 | -75.47437 | 24598 ft | 443 kts | 231° |
| 2026-05-04 23:45 | 40.03912 | -75.50370 | 24892 ft | 445 kts | 231° |
| 2026-05-04 23:45 | 40.01785 | -75.53312 | 25156 ft | 446 kts | 231° |
| 2026-05-04 23:45 | 39.99647 | -75.56269 | 25416 ft | 448 kts | 231° |
| 2026-05-04 23:46 | 39.97503 | -75.59235 | 25709 ft | 450 kts | 231° |
| 2026-05-04 23:46 | 39.95351 | -75.62209 | 26001 ft | 452 kts | 231° |
| 2026-05-04 23:46 | 39.93188 | -75.65187 | 26287 ft | 453 kts | 231° |
| 2026-05-04 23:46 | 39.91032 | -75.68198 | 26554 ft | 455 kts | 232° |
| 2026-05-04 23:47 | 39.88962 | -75.71304 | 26902 ft | 453 kts | 234° |
| 2026-05-04 23:47 | 39.86971 | -75.74476 | 27279 ft | 451 kts | 235° |
| 2026-05-04 23:47 | 39.85029 | -75.77680 | 27662 ft | 450 kts | 236° |
| 2026-05-04 23:47 | 39.83099 | -75.80896 | 28011 ft | 450 kts | 235° |
| 2026-05-04 23:48 | 39.81162 | -75.84099 | 28359 ft | 450 kts | 235° |
| 2026-05-04 23:48 | 39.79209 | -75.87280 | 28715 ft | 450 kts | 234° |
| 2026-05-04 23:48 | 39.77233 | -75.90441 | 29088 ft | 450 kts | 234° |
| 2026-05-04 23:48 | 39.75251 | -75.93578 | 29452 ft | 449 kts | 234° |
| 2026-05-04 23:49 | 39.73265 | -75.96712 | 29826 ft | 449 kts | 234° |
| 2026-05-04 23:49 | 39.71304 | -75.99804 | 30149 ft | 448 kts | 234° |
| 2026-05-04 23:49 | 39.69329 | -76.02926 | 30444 ft | 448 kts | 234° |
| 2026-05-04 23:49 | 39.67351 | -76.06053 | 30739 ft | 447 kts | 234° |
| 2026-05-04 23:50 | 39.65379 | -76.09170 | 31019 ft | 447 kts | 234° |
| 2026-05-04 23:50 | 39.63408 | -76.12283 | 31298 ft | 447 kts | 234° |
| 2026-05-04 23:50 | 39.61433 | -76.15401 | 31590 ft | 446 kts | 233° |
| 2026-05-04 23:50 | 39.59462 | -76.18511 | 31836 ft | 447 kts | 233° |
| 2026-05-04 23:51 | 39.57475 | -76.21610 | 32100 ft | 447 kts | 233° |
| 2026-05-04 23:51 | 39.55476 | -76.24693 | 32378 ft | 447 kts | 233° |
| 2026-05-04 23:51 | 39.53466 | -76.27764 | 32653 ft | 446 kts | 232° |
| 2026-05-04 23:51 | 39.51459 | -76.30824 | 32922 ft | 446 kts | 233° |
| 2026-05-04 23:52 | 39.49452 | -76.33888 | 33189 ft | 445 kts | 233° |
| 2026-05-04 23:52 | 39.47451 | -76.36948 | 33457 ft | 445 kts | 233° |
| 2026-05-04 23:52 | 39.45419 | -76.39980 | 33714 ft | 445 kts | 231° |
| 2026-05-04 23:52 | 39.43306 | -76.42903 | 33881 ft | 445 kts | 229° |
| 2026-05-04 23:53 | 39.38919 | -76.48547 | 33918 ft | 445 kts | 227° |
| 2026-05-04 23:53 | 39.34493 | -76.54140 | 33933 ft | 445 kts | 227° |
| 2026-05-04 23:54 | 39.30119 | -76.59793 | 33907 ft | 445 kts | 228° |
| 2026-05-04 23:54 | 39.25772 | -76.65485 | 33893 ft | 445 kts | 229° |
| 2026-05-04 23:55 | 39.21456 | -76.71123 | 33907 ft | 444 kts | 228° |
| 2026-05-04 23:56 | 39.14916 | -76.79598 | 33945 ft | 445 kts | 228° |
| 2026-05-04 23:56 | 39.10554 | -76.85235 | 33947 ft | 445 kts | 228° |
| 2026-05-04 23:57 | 39.06185 | -76.90870 | 33927 ft | 444 kts | 228° |
| 2026-05-04 23:57 | 39.01816 | -76.96495 | 33939 ft | 444 kts | 228° |
| 2026-05-04 23:58 | 38.97455 | -77.02102 | 33942 ft | 443 kts | 228° |
| 2026-05-04 23:58 | 38.93096 | -77.07713 | 33925 ft | 443 kts | 228° |
| 2026-05-04 23:59 | 38.88744 | -77.13317 | 33924 ft | 443 kts | 228° |
| 2026-05-04 23:59 | 38.84385 | -77.18912 | 33916 ft | 443 kts | 228° |
| 2026-05-05 00:00 | 38.80026 | -77.24480 | 33906 ft | 442 kts | 228° |
| 2026-05-05 00:00 | 38.75660 | -77.30046 | 33908 ft | 442 kts | 228° |
| 2026-05-05 00:01 | 38.71304 | -77.35533 | 33942 ft | 442 kts | 227° |
| 2026-05-05 00:01 | 38.66746 | -77.40842 | 33929 ft | 443 kts | 225° |
| 2026-05-05 00:02 | 38.62123 | -77.46053 | 33938 ft | 442 kts | 225° |
| 2026-05-05 00:02 | 38.57521 | -77.51286 | 33938 ft | 442 kts | 225° |
| 2026-05-05 00:03 | 38.52961 | -77.56533 | 33938 ft | 441 kts | 226° |
| 2026-05-05 00:03 | 38.48406 | -77.61792 | 33939 ft | 441 kts | 226° |
| 2026-05-05 00:04 | 38.43845 | -77.67036 | 33937 ft | 441 kts | 226° |
| 2026-05-05 00:04 | 38.39283 | -77.72254 | 33938 ft | 440 kts | 225° |
| 2026-05-05 00:05 | 38.34719 | -77.77458 | 33950 ft | 440 kts | 225° |
| 2026-05-05 00:05 | 38.30164 | -77.82652 | 33944 ft | 439 kts | 225° |
| 2026-05-05 00:06 | 38.25608 | -77.87843 | 33932 ft | 439 kts | 226° |
| 2026-05-05 00:06 | 38.21095 | -77.92974 | 33945 ft | 438 kts | 226° |
| 2026-05-05 00:07 | 38.16556 | -77.98125 | 33941 ft | 437 kts | 226° |
| 2026-05-05 00:07 | 38.12012 | -78.03268 | 33945 ft | 437 kts | 226° |
| 2026-05-05 00:08 | 38.07469 | -78.08403 | 33951 ft | 438 kts | 226° |
| 2026-05-05 00:08 | 38.02922 | -78.13537 | 33941 ft | 437 kts | 226° |
| 2026-05-05 00:09 | 37.98261 | -78.18510 | 33949 ft | 439 kts | 223° |
| 2026-05-05 00:09 | 37.93359 | -78.23134 | 33953 ft | 440 kts | 221° |
| 2026-05-05 00:10 | 37.88412 | -78.27690 | 33947 ft | 440 kts | 221° |
| 2026-05-05 00:10 | 37.83502 | -78.32306 | 33945 ft | 439 kts | 221° |
| 2026-05-05 00:11 | 37.78630 | -78.36960 | 33951 ft | 439 kts | 222° |
| 2026-05-05 00:11 | 37.73752 | -78.41609 | 33948 ft | 439 kts | 222° |
| 2026-05-05 00:12 | 37.68904 | -78.46215 | 33950 ft | 439 kts | 222° |
| 2026-05-05 00:12 | 37.64022 | -78.50844 | 33956 ft | 439 kts | 221° |
| 2026-05-05 00:13 | 37.59137 | -78.55460 | 33956 ft | 438 kts | 222° |
| 2026-05-05 00:13 | 37.54261 | -78.60048 | 33980 ft | 437 kts | 222° |
| 2026-05-05 00:14 | 37.49386 | -78.64626 | 33982 ft | 436 kts | 222° |
| 2026-05-05 00:14 | 37.44527 | -78.69195 | 33980 ft | 436 kts | 222° |
| 2026-05-05 00:15 | 37.39661 | -78.73763 | 33963 ft | 436 kts | 222° |
| 2026-05-05 00:15 | 37.34810 | -78.78299 | 33983 ft | 434 kts | 222° |
| 2026-05-05 00:16 | 37.30001 | -78.82801 | 33985 ft | 433 kts | 222° |
| 2026-05-05 00:16 | 37.25175 | -78.87316 | 33982 ft | 432 kts | 222° |
| 2026-05-05 00:17 | 37.20348 | -78.91815 | 33981 ft | 432 kts | 222° |
| 2026-05-05 00:17 | 37.15534 | -78.96294 | 33985 ft | 430 kts | 223° |
| 2026-05-05 00:18 | 37.11549 | -78.99994 | 33988 ft | 428 kts | 223° |
| 2026-05-05 00:18 | 37.06777 | -79.04423 | 33988 ft | 426 kts | 223° |
| 2026-05-05 00:19 | 37.01238 | -79.09557 | 33982 ft | 426 kts | 222° |
| 2026-05-05 00:19 | 36.97251 | -79.13255 | 33962 ft | 426 kts | 223° |
| 2026-05-05 00:20 | 36.92481 | -79.17655 | 33962 ft | 426 kts | 223° |
| 2026-05-05 00:20 | 36.87710 | -79.22047 | 33971 ft | 426 kts | 223° |
| 2026-05-05 00:21 | 36.82938 | -79.26444 | 33976 ft | 426 kts | 223° |
| 2026-05-05 00:21 | 36.78193 | -79.30814 | 33981 ft | 427 kts | 223° |
| 2026-05-05 00:22 | 36.73410 | -79.35201 | 33964 ft | 426 kts | 222° |
| 2026-05-05 00:22 | 36.68640 | -79.39567 | 33991 ft | 425 kts | 222° |
| 2026-05-05 00:23 | 36.63882 | -79.43926 | 34004 ft | 424 kts | 223° |
| 2026-05-05 00:23 | 36.59125 | -79.48281 | 33994 ft | 424 kts | 223° |
| 2026-05-05 00:24 | 36.54363 | -79.52624 | 33977 ft | 425 kts | 223° |
| 2026-05-05 00:24 | 36.49597 | -79.56967 | 33958 ft | 424 kts | 222° |
| 2026-05-05 00:25 | 36.44833 | -79.61293 | 33975 ft | 424 kts | 222° |
| 2026-05-05 00:25 | 36.40071 | -79.65608 | 33982 ft | 423 kts | 222° |
| 2026-05-05 00:26 | 36.35321 | -79.69920 | 34009 ft | 423 kts | 222° |
| 2026-05-05 00:26 | 36.30565 | -79.74224 | 33982 ft | 423 kts | 222° |
| 2026-05-05 00:27 | 36.25802 | -79.78513 | 33988 ft | 423 kts | 221° |
| 2026-05-05 00:27 | 36.21072 | -79.82786 | 34005 ft | 424 kts | 221° |
| 2026-05-05 00:28 | 36.16304 | -79.87095 | 34015 ft | 424 kts | 221° |
| 2026-05-05 00:28 | 36.11526 | -79.91386 | 34014 ft | 425 kts | 221° |
| 2026-05-05 00:29 | 36.06740 | -79.95669 | 33992 ft | 425 kts | 221° |
| 2026-05-05 00:29 | 36.01498 | -79.99178 | 34011 ft | 435 kts | 208° |
| 2026-05-05 00:30 | 35.95877 | -80.01955 | 34009 ft | 436 kts | 207° |
| 2026-05-05 00:30 | 35.90241 | -80.04723 | 34020 ft | 436 kts | 207° |
| 2026-05-05 00:31 | 35.84609 | -80.07489 | 34029 ft | 436 kts | 208° |
| 2026-05-05 00:31 | 35.78980 | -80.10264 | 34020 ft | 435 kts | 207° |
| 2026-05-05 00:32 | 35.73358 | -80.13040 | 34028 ft | 435 kts | 207° |
| 2026-05-05 00:32 | 35.67735 | -80.15803 | 34030 ft | 435 kts | 207° |
| 2026-05-05 00:33 | 35.62107 | -80.18557 | 34033 ft | 435 kts | 207° |
| 2026-05-05 00:33 | 35.56481 | -80.21305 | 34057 ft | 435 kts | 207° |
| 2026-05-05 00:34 | 35.50842 | -80.24055 | 34065 ft | 436 kts | 207° |
| 2026-05-05 00:34 | 35.45248 | -80.26792 | 34071 ft | 436 kts | 207° |
| 2026-05-05 00:35 | 35.39610 | -80.29547 | 34068 ft | 436 kts | 207° |
| 2026-05-05 00:35 | 35.33968 | -80.32288 | 34042 ft | 436 kts | 207° |
| 2026-05-05 00:36 | 35.28337 | -80.35025 | 34049 ft | 435 kts | 207° |
| 2026-05-05 00:36 | 35.22708 | -80.37762 | 34046 ft | 435 kts | 207° |
| 2026-05-05 00:37 | 35.17086 | -80.40493 | 34044 ft | 435 kts | 207° |
| 2026-05-05 00:37 | 35.11459 | -80.43206 | 34021 ft | 434 kts | 207° |
| 2026-05-05 00:38 | 35.05842 | -80.45907 | 34030 ft | 434 kts | 207° |
| 2026-05-05 00:38 | 35.00229 | -80.48618 | 34036 ft | 434 kts | 207° |
| 2026-05-05 00:39 | 34.94614 | -80.51333 | 34038 ft | 434 kts | 207° |
| 2026-05-05 00:39 | 34.88994 | -80.54037 | 34047 ft | 434 kts | 207° |
| 2026-05-05 00:40 | 34.83374 | -80.56728 | 34034 ft | 434 kts | 207° |
| 2026-05-05 00:40 | 34.77765 | -80.59415 | 34041 ft | 433 kts | 207° |
| 2026-05-05 00:41 | 34.72156 | -80.62099 | 34046 ft | 433 kts | 207° |
| 2026-05-05 00:41 | 34.66565 | -80.64836 | 34050 ft | 430 kts | 212° |
| 2026-05-05 00:42 | 34.61713 | -80.68853 | 34022 ft | 418 kts | 226° |
| 2026-05-05 00:42 | 34.57383 | -80.73591 | 34026 ft | 420 kts | 226° |
| 2026-05-05 00:43 | 34.53024 | -80.78307 | 34034 ft | 420 kts | 226° |
| 2026-05-05 00:43 | 34.48680 | -80.82991 | 34043 ft | 421 kts | 226° |
| 2026-05-05 00:44 | 34.44308 | -80.87711 | 34055 ft | 421 kts | 226° |
| 2026-05-05 00:44 | 34.39938 | -80.92434 | 34063 ft | 421 kts | 226° |
| 2026-05-05 00:45 | 34.35556 | -80.97155 | 34057 ft | 422 kts | 226° |
| 2026-05-05 00:45 | 34.30892 | -81.01518 | 34056 ft | 429 kts | 213° |
| 2026-05-05 00:46 | 34.25276 | -81.04159 | 34061 ft | 437 kts | 202° |
| 2026-05-05 00:46 | 34.19479 | -81.06372 | 34056 ft | 437 kts | 203° |
| 2026-05-05 00:47 | 34.13683 | -81.08601 | 34025 ft | 437 kts | 203° |
| 2026-05-05 00:47 | 34.07896 | -81.10832 | 34049 ft | 436 kts | 203° |
| 2026-05-05 00:48 | 34.02110 | -81.13052 | 34060 ft | 436 kts | 203° |
| 2026-05-05 00:48 | 33.96367 | -81.15245 | 34064 ft | 435 kts | 203° |
| 2026-05-05 00:49 | 33.90592 | -81.17454 | 34062 ft | 435 kts | 203° |
| 2026-05-05 00:49 | 33.84827 | -81.19662 | 34063 ft | 434 kts | 203° |
| 2026-05-05 00:50 | 33.79068 | -81.21852 | 34068 ft | 434 kts | 203° |
| 2026-05-05 00:50 | 33.73315 | -81.24042 | 34057 ft | 433 kts | 203° |
| 2026-05-05 00:51 | 33.67565 | -81.26230 | 34056 ft | 433 kts | 203° |
| 2026-05-05 00:51 | 33.61818 | -81.28402 | 34046 ft | 433 kts | 202° |
| 2026-05-05 00:52 | 33.56066 | -81.30585 | 34045 ft | 434 kts | 202° |
| 2026-05-05 00:52 | 33.50312 | -81.32770 | 34058 ft | 433 kts | 202° |
| 2026-05-05 00:53 | 33.44599 | -81.34928 | 34070 ft | 434 kts | 202° |
| 2026-05-05 00:53 | 33.38844 | -81.37097 | 34074 ft | 434 kts | 202° |
| 2026-05-05 00:54 | 33.33084 | -81.39270 | 34049 ft | 434 kts | 202° |
| 2026-05-05 00:54 | 33.27317 | -81.41446 | 34058 ft | 434 kts | 203° |
| 2026-05-05 00:55 | 33.21617 | -81.43805 | 34065 ft | 433 kts | 205° |
| 2026-05-05 00:55 | 33.15958 | -81.46306 | 34071 ft | 433 kts | 205° |
| 2026-05-05 00:56 | 33.10300 | -81.48787 | 34073 ft | 433 kts | 205° |
| 2026-05-05 00:56 | 33.04623 | -81.51220 | 34073 ft | 433 kts | 204° |
| 2026-05-05 00:57 | 32.98937 | -81.53628 | 34075 ft | 433 kts | 204° |
| 2026-05-05 00:57 | 32.93258 | -81.56037 | 34077 ft | 433 kts | 205° |
| 2026-05-05 00:58 | 32.87588 | -81.58495 | 34087 ft | 433 kts | 205° |
| 2026-05-05 00:58 | 32.82002 | -81.61045 | 34076 ft | 433 kts | 206° |
| 2026-05-05 00:59 | 32.76383 | -81.63635 | 34084 ft | 433 kts | 206° |
| 2026-05-05 00:59 | 32.70743 | -81.66193 | 34090 ft | 434 kts | 205° |
| 2026-05-05 01:00 | 32.65091 | -81.68733 | 34089 ft | 435 kts | 205° |
| 2026-05-05 01:00 | 32.59432 | -81.71267 | 34065 ft | 435 kts | 205° |
| 2026-05-05 01:01 | 32.53766 | -81.73812 | 34051 ft | 436 kts | 205° |
| 2026-05-05 01:01 | 32.48095 | -81.76360 | 34053 ft | 436 kts | 205° |
| 2026-05-05 01:02 | 32.42413 | -81.78911 | 34063 ft | 436 kts | 205° |
| 2026-05-05 01:02 | 32.36736 | -81.81459 | 34066 ft | 436 kts | 205° |
| 2026-05-05 01:03 | 32.31056 | -81.84007 | 34065 ft | 437 kts | 206° |
| 2026-05-05 01:03 | 32.25371 | -81.86546 | 34080 ft | 437 kts | 206° |
| 2026-05-05 01:04 | 32.20638 | -81.88656 | 34086 ft | 437 kts | 206° |
| 2026-05-05 01:04 | 32.12079 | -81.92413 | 34090 ft | 438 kts | 204° |
| 2026-05-05 01:05 | 32.06256 | -81.94603 | 34059 ft | 440 kts | 203° |
| 2026-05-05 01:05 | 32.00390 | -81.96688 | 34065 ft | 440 kts | 203° |
| 2026-05-05 01:06 | 31.94542 | -81.98826 | 34070 ft | 440 kts | 204° |
| 2026-05-05 01:06 | 31.88706 | -82.01017 | 34076 ft | 440 kts | 204° |
| 2026-05-05 01:07 | 31.82740 | -82.02800 | 34076 ft | 445 kts | 199° |
| 2026-05-05 01:07 | 31.76683 | -82.04331 | 34043 ft | 446 kts | 200° |
| 2026-05-05 01:08 | 31.70616 | -82.05855 | 34055 ft | 446 kts | 200° |
| 2026-05-05 01:08 | 31.64543 | -82.07383 | 34063 ft | 446 kts | 200° |
| 2026-05-05 01:09 | 31.58471 | -82.08910 | 34096 ft | 446 kts | 200° |
| 2026-05-05 01:09 | 31.52400 | -82.10437 | 34067 ft | 446 kts | 200° |
| 2026-05-05 01:10 | 31.46356 | -82.11954 | 34085 ft | 446 kts | 201° |
| 2026-05-05 01:10 | 31.40280 | -82.13486 | 34087 ft | 447 kts | 201° |
| 2026-05-05 01:11 | 31.34198 | -82.15018 | 34077 ft | 447 kts | 201° |
| 2026-05-05 01:11 | 31.28118 | -82.16542 | 34034 ft | 447 kts | 201° |
| 2026-05-05 01:12 | 31.22043 | -82.18058 | 34059 ft | 446 kts | 201° |
| 2026-05-05 01:12 | 31.15966 | -82.19577 | 34102 ft | 447 kts | 201° |
| 2026-05-05 01:13 | 31.09887 | -82.21094 | 34105 ft | 447 kts | 201° |
| 2026-05-05 01:13 | 31.03811 | -82.22606 | 34130 ft | 446 kts | 201° |
| 2026-05-05 01:14 | 30.97735 | -82.24119 | 34101 ft | 447 kts | 201° |
| 2026-05-05 01:14 | 30.91652 | -82.25634 | 34142 ft | 447 kts | 201° |
| 2026-05-05 01:15 | 30.85560 | -82.27144 | 34146 ft | 448 kts | 201° |
| 2026-05-05 01:15 | 30.79458 | -82.28659 | 34164 ft | 448 kts | 201° |
| 2026-05-05 01:16 | 30.73361 | -82.30168 | 34169 ft | 448 kts | 201° |
| 2026-05-05 01:16 | 30.67240 | -82.31656 | 34143 ft | 452 kts | 198° |
| 2026-05-05 01:17 | 30.60929 | -82.32497 | 34155 ft | 458 kts | 195° |
| 2026-05-05 01:17 | 30.54589 | -82.33290 | 34163 ft | 458 kts | 195° |
| 2026-05-05 01:18 | 30.48243 | -82.34079 | 34181 ft | 459 kts | 195° |
| 2026-05-05 01:18 | 30.41888 | -82.34868 | 34187 ft | 459 kts | 195° |
| 2026-05-05 01:19 | 30.35536 | -82.35663 | 34187 ft | 459 kts | 195° |
| 2026-05-05 01:19 | 30.29219 | -82.36454 | 34191 ft | 460 kts | 195° |
| 2026-05-05 01:20 | 30.22855 | -82.37239 | 34173 ft | 460 kts | 195° |
| 2026-05-05 01:20 | 30.16467 | -82.37882 | 34095 ft | 467 kts | 188° |
| 2026-05-05 01:21 | 30.09918 | -82.37548 | 34112 ft | 472 kts | 186° |
| 2026-05-05 01:21 | 30.03350 | -82.37182 | 34106 ft | 473 kts | 186° |
| 2026-05-05 01:22 | 29.96773 | -82.36816 | 34101 ft | 473 kts | 186° |
| 2026-05-05 01:22 | 29.90191 | -82.36450 | 34091 ft | 473 kts | 186° |
| 2026-05-05 01:23 | 29.83598 | -82.36081 | 34061 ft | 474 kts | 185° |
| 2026-05-05 01:23 | 29.77001 | -82.35716 | 34065 ft | 475 kts | 185° |
| 2026-05-05 01:24 | 29.70392 | -82.35347 | 33995 ft | 476 kts | 185° |
| 2026-05-05 01:24 | 29.67083 | -82.35164 | 33727 ft | 475 kts | 185° |
| 2026-05-05 01:24 | 29.63778 | -82.34981 | 33371 ft | 475 kts | 185° |
| 2026-05-05 01:25 | 29.60458 | -82.34799 | 32382 ft | 481 kts | 185° |
| 2026-05-05 01:25 | 29.57116 | -82.34617 | 31599 ft | 482 kts | 185° |
| 2026-05-05 01:25 | 29.53754 | -82.34434 | 30756 ft | 485 kts | 185° |
| 2026-05-05 01:25 | 29.50366 | -82.34250 | 29795 ft | 488 kts | 185° |
| 2026-05-05 01:26 | 29.46976 | -82.34061 | 28722 ft | 488 kts | 184° |
| 2026-05-05 01:26 | 29.43596 | -82.33869 | 27764 ft | 485 kts | 184° |
| 2026-05-05 01:26 | 29.40230 | -82.33674 | 26687 ft | 485 kts | 183° |
| 2026-05-05 01:26 | 29.36866 | -82.33399 | 25725 ft | 485 kts | 181° |
| 2026-05-05 01:27 | 29.33536 | -82.33024 | 25135 ft | 477 kts | 179° |
| 2026-05-05 01:27 | 29.30290 | -82.32600 | 24433 ft | 475 kts | 178° |
| 2026-05-05 01:27 | 29.27010 | -82.32154 | 23773 ft | 472 kts | 178° |
| 2026-05-05 01:27 | 29.23754 | -82.31719 | 23024 ft | 470 kts | 178° |
| 2026-05-05 01:28 | 29.20527 | -82.31306 | 22371 ft | 464 kts | 178° |
| 2026-05-05 01:28 | 29.17333 | -82.30915 | 21706 ft | 460 kts | 178° |
| 2026-05-05 01:28 | 29.14163 | -82.30538 | 21053 ft | 455 kts | 178° |
| 2026-05-05 01:28 | 29.11030 | -82.30172 | 20400 ft | 450 kts | 178° |
| 2026-05-05 01:29 | 29.07927 | -82.29809 | 19752 ft | 446 kts | 178° |
| 2026-05-05 01:29 | 29.04850 | -82.29450 | 19126 ft | 442 kts | 178° |
| 2026-05-05 01:29 | 29.01805 | -82.29094 | 18500 ft | 437 kts | 178° |
| 2026-05-05 01:29 | 28.98793 | -82.28741 | 17859 ft | 433 kts | 177° |
| 2026-05-05 01:30 | 28.95820 | -82.28387 | 17288 ft | 426 kts | 177° |
| 2026-05-05 01:30 | 28.92883 | -82.28034 | 16692 ft | 422 kts | 177° |
| 2026-05-05 01:30 | 28.89971 | -82.27687 | 16129 ft | 418 kts | 176° |
| 2026-05-05 01:30 | 28.87084 | -82.27345 | 15584 ft | 415 kts | 176° |
| 2026-05-05 01:31 | 28.84225 | -82.27008 | 15052 ft | 412 kts | 176° |
| 2026-05-05 01:31 | 28.81389 | -82.26674 | 14514 ft | 408 kts | 176° |
| 2026-05-05 01:31 | 28.78572 | -82.26344 | 13961 ft | 406 kts | 176° |
| 2026-05-05 01:31 | 28.75775 | -82.26015 | 13357 ft | 403 kts | 176° |
| 2026-05-05 01:32 | 28.73010 | -82.25784 | 13044 ft | 395 kts | 181° |
| 2026-05-05 01:32 | 28.70265 | -82.25747 | 12993 ft | 394 kts | 181° |
| 2026-05-05 01:32 | 28.67518 | -82.25705 | 13001 ft | 395 kts | 181° |
| 2026-05-05 01:32 | 28.64769 | -82.25662 | 13011 ft | 395 kts | 181° |
| 2026-05-05 01:33 | 28.62019 | -82.25615 | 13010 ft | 395 kts | 181° |
| 2026-05-05 01:33 | 28.59293 | -82.25560 | 12992 ft | 384 kts | 181° |
| 2026-05-05 01:33 | 28.56683 | -82.25502 | 12896 ft | 366 kts | 181° |
| 2026-05-05 01:33 | 28.54201 | -82.25447 | 12768 ft | 347 kts | 181° |
| 2026-05-05 01:34 | 28.51850 | -82.25399 | 12640 ft | 330 kts | 181° |
| 2026-05-05 01:34 | 28.49607 | -82.25365 | 12479 ft | 315 kts | 182° |
| 2026-05-05 01:34 | 28.47440 | -82.25338 | 12110 ft | 309 kts | 182° |
| 2026-05-05 01:34 | 28.45295 | -82.25315 | 11673 ft | 306 kts | 182° |
| 2026-05-05 01:35 | 28.43173 | -82.25294 | 11242 ft | 303 kts | 182° |
| 2026-05-05 01:35 | 28.41075 | -82.25269 | 10822 ft | 300 kts | 182° |
| 2026-05-05 01:35 | 28.38995 | -82.25241 | 10410 ft | 297 kts | 183° |
| 2026-05-05 01:35 | 28.36968 | -82.25514 | 9997 ft | 291 kts | 199° |
| 2026-05-05 01:36 | 28.35138 | -82.26405 | 9535 ft | 284 kts | 214° |
| 2026-05-05 01:36 | 28.33618 | -82.27744 | 9224 ft | 277 kts | 223° |
| 2026-05-05 01:36 | 28.32153 | -82.29156 | 9023 ft | 276 kts | 221° |
| 2026-05-05 01:36 | 28.30682 | -82.30554 | 8832 ft | 275 kts | 221° |
| 2026-05-05 01:37 | 28.29219 | -82.31944 | 8651 ft | 274 kts | 221° |
| 2026-05-05 01:37 | 28.27759 | -82.33330 | 8449 ft | 273 kts | 221° |
| 2026-05-05 01:37 | 28.26302 | -82.34716 | 8281 ft | 273 kts | 221° |
| 2026-05-05 01:37 | 28.24854 | -82.36092 | 8080 ft | 271 kts | 221° |
| 2026-05-05 01:38 | 28.23407 | -82.37469 | 7914 ft | 271 kts | 221° |
| 2026-05-05 01:38 | 28.21964 | -82.38843 | 7722 ft | 271 kts | 221° |
| 2026-05-05 01:38 | 28.20463 | -82.40132 | 7537 ft | 271 kts | 210° |
| 2026-05-05 01:38 | 28.18711 | -82.40915 | 7353 ft | 272 kts | 192° |
| 2026-05-05 01:39 | 28.16822 | -82.41110 | 7175 ft | 273 kts | 181° |
| 2026-05-05 01:39 | 28.14920 | -82.41148 | 6977 ft | 273 kts | 182° |
| 2026-05-05 01:39 | 28.13031 | -82.41188 | 6668 ft | 270 kts | 181° |
| 2026-05-05 01:39 | 28.11187 | -82.41230 | 6368 ft | 267 kts | 181° |
| 2026-05-05 01:40 | 28.09322 | -82.41274 | 5975 ft | 268 kts | 181° |
| 2026-05-05 01:40 | 28.07456 | -82.41320 | 5585 ft | 269 kts | 181° |
| 2026-05-05 01:40 | 28.05590 | -82.41365 | 5234 ft | 268 kts | 180° |
| 2026-05-05 01:40 | 28.03733 | -82.41410 | 5006 ft | 266 kts | 180° |
| 2026-05-05 01:41 | 28.01928 | -82.41454 | 4983 ft | 252 kts | 180° |
| 2026-05-05 01:41 | 28.00233 | -82.41496 | 4997 ft | 235 kts | 181° |
| 2026-05-05 01:41 | 27.98634 | -82.41536 | 5009 ft | 227 kts | 180° |
| 2026-05-05 01:41 | 27.97069 | -82.41572 | 4664 ft | 225 kts | 180° |
| 2026-05-05 01:42 | 27.95503 | -82.41604 | 4295 ft | 224 kts | 179° |
| 2026-05-05 01:42 | 27.93943 | -82.41637 | 3942 ft | 223 kts | 178° |
| 2026-05-05 01:42 | 27.92397 | -82.41671 | 3601 ft | 222 kts | 180° |
| 2026-05-05 01:42 | 27.90852 | -82.41705 | 3252 ft | 222 kts | 178° |
| 2026-05-05 01:43 | 27.89317 | -82.41742 | 3010 ft | 220 kts | 179° |
| 2026-05-05 01:43 | 27.87787 | -82.41780 | 2993 ft | 220 kts | 178° |
| 2026-05-05 01:43 | 27.86249 | -82.41819 | 2994 ft | 221 kts | 178° |
| 2026-05-05 01:43 | 27.84710 | -82.41857 | 2992 ft | 222 kts | 178° |
| 2026-05-05 01:44 | 27.83166 | -82.41897 | 2991 ft | 222 kts | 178° |
| 2026-05-05 01:44 | 27.81622 | -82.41939 | 2990 ft | 222 kts | 178° |
| 2026-05-05 01:44 | 27.80120 | -82.42248 | 2977 ft | 228 kts | 203° |
| 2026-05-05 01:44 | 27.78959 | -82.43418 | 2979 ft | 225 kts | 237° |
| 2026-05-05 01:45 | 27.78395 | -82.45079 | 2831 ft | 224 kts | 258° |
| 2026-05-05 01:45 | 27.78186 | -82.46788 | 2693 ft | 222 kts | 263° |
| 2026-05-05 01:45 | 27.78036 | -82.48529 | 2588 ft | 224 kts | 263° |
| 2026-05-05 01:45 | 27.77967 | -82.50278 | 2565 ft | 224 kts | 278° |
| 2026-05-05 01:46 | 27.78550 | -82.51883 | 2581 ft | 223 kts | 304° |
| 2026-05-05 01:46 | 27.79484 | -82.53273 | 2570 ft | 221 kts | 319° |
| 2026-05-05 01:46 | 27.80730 | -82.54248 | 2581 ft | 217 kts | 340° |
| 2026-05-05 01:46 | 27.82117 | -82.54678 | 2590 ft | 200 kts | 359° |
| 2026-05-05 01:47 | 27.83479 | -82.54676 | 2441 ft | 194 kts | 7° |
| 2026-05-05 01:47 | 27.84810 | -82.54629 | 2233 ft | 188 kts | 7° |
| 2026-05-05 01:47 | 27.86116 | -82.54584 | 1978 ft | 182 kts | 7° |
| 2026-05-05 01:47 | 27.87342 | -82.54544 | 1752 ft | 172 kts | 8° |
| 2026-05-05 01:48 | 27.88526 | -82.54502 | 1531 ft | 170 kts | 7° |
| 2026-05-05 01:48 | 27.89689 | -82.54462 | 1314 ft | 165 kts | 7° |
| 2026-05-05 01:48 | 27.90453 | -82.54436 | 1161 ft | 168 kts | 8° |
| 2026-05-05 01:48 | 27.91615 | -82.54396 | 964 ft | 162 kts | 7° |
| 2026-05-05 01:49 | 27.92714 | -82.54358 | 755 ft | 156 kts | 6° |
| 2026-05-05 01:49 | 27.93802 | -82.54312 | 570 ft | 157 kts | 6° |
| 2026-05-05 01:49 | 27.94899 | -82.54288 | 369 ft | 157 kts | 7° |
| 2026-05-05 01:49 | 27.95973 | -82.54252 | 165 ft | 156 kts | 4° |
| 2026-05-05 01:50 | 27.97048 | -82.54213 | 53 ft | 139 kts | 3° |
| 2026-05-05 01:50 | 27.97717 | -82.54189 | 46 ft | 52 kts | 1° |
| 2026-05-05 01:50 | 27.97920 | -82.54130 | 47 ft | 27 kts | 33° |
| 2026-05-05 01:50 | 27.98001 | -82.54071 | 47 ft | 0 kts | 32° |
| 2026-05-05 01:51 | 27.98005 | -82.54068 | 47 ft | 2 kts | 31° |
| 2026-05-05 01:51 | 27.98042 | -82.54055 | 47 ft | 10 kts | 7° |
| 2026-05-05 01:51 | 27.98138 | -82.54052 | 47 ft | 16 kts | 1° |
| 2026-05-05 01:52 | 27.98248 | -82.54050 | 48 ft | 16 kts | 1° |
| 2026-05-05 01:52 | 27.98359 | -82.54047 | 48 ft | 16 kts | 2° |
| 2026-05-05 01:52 | 27.98481 | -82.54041 | 48 ft | 19 kts | 2° |
| 2026-05-05 01:52 | 27.98589 | -82.53966 | 47 ft | 22 kts | 87° |
| 2026-05-05 01:53 | 27.98584 | -82.53790 | 47 ft | 25 kts | 92° |
| 2026-05-05 01:53 | 27.98578 | -82.53607 | 58 ft | 20 kts | 91° |
| 2026-05-05 01:53 | 27.98573 | -82.53476 | 67 ft | 15 kts | 93° |
| 2026-05-05 01:53 | 27.98569 | -82.53346 | 58 ft | 17 kts | 91° |
| 2026-05-05 01:54 | 27.98566 | -82.53208 | 48 ft | 16 kts | 92° |
| 2026-05-05 01:54 | 27.98480 | -82.53168 | 43 ft | 18 kts | 221° |
| 2026-05-05 01:54 | 27.98425 | -82.53215 | 43 ft | 0 kts | 209° |